Autryville, North Carolina
Current Conditions -  °F | °C
As of 12:53 PM on Friday 31 Oct 2014 (Local Time) from KFAY Reporting Station
Few Clouds Few Clouds  
Wind Chill: 64°   Ceiling: Unl
Heat Index: 64°   Visibility: 10mi
Dew Point: 44°   Wind: 8mph
Humidity: 48%   Direction: 350°N
Pressure: 29.87"   Gusts: NA
Location:  35°N, 78.64°W
Report Text: KFAY 311653Z AUTO 35007KT 10SM FEW039 18/07 A2987 RMK AO2 SLP110 T01780067
Loading
Personal Weather Stations






























Interactive Weather Map
Tropical Storm Tracking
New forecast layout! Learn more

10-Day Weather Forecast

Advertisements
Track Severe Weather on mobile